sensor_id;sensor_type;location;lat;lon;timestamp;P1;durP1;ratioP1;P2;durP2;ratioP2
11425;SDS011;5769;47.998;7.788;2022-07-23T00:00:06;331.30;;;60.35;;
11425;SDS011;5769;47.998;7.788;2022-07-23T00:02:34;331.67;;;59.13;;
11425;SDS011;5769;47.998;7.788;2022-07-23T00:05:00;331.90;;;59.65;;
11425;SDS011;5769;47.998;7.788;2022-07-23T00:07:29;332.25;;;59.75;;
11425;SDS011;5769;47.998;7.788;2022-07-23T00:09:55;332.73;;;60.05;;
11425;SDS011;5769;47.998;7.788;2022-07-23T00:12:22;332.08;;;58.83;;
11425;SDS011;5769;47.998;7.788;2022-07-23T00:14:49;332.20;;;59.65;;
11425;SDS011;5769;47.998;7.788;2022-07-23T00:17:15;333.00;;;60.53;;
11425;SDS011;5769;47.998;7.788;2022-07-23T00:19:42;331.88;;;60.70;;
11425;SDS011;5769;47.998;7.788;2022-07-23T00:22:09;333.67;;;60.55;;
11425;SDS011;5769;47.998;7.788;2022-07-23T00:24:37;332.48;;;60.17;;
11425;SDS011;5769;47.998;7.788;2022-07-23T00:27:03;333.70;;;60.53;;
11425;SDS011;5769;47.998;7.788;2022-07-23T00:29:30;332.70;;;60.78;;
11425;SDS011;5769;47.998;7.788;2022-07-23T00:31:57;334.48;;;61.55;;
11425;SDS011;5769;47.998;7.788;2022-07-23T00:34:23;333.13;;;59.97;;
11425;SDS011;5769;47.998;7.788;2022-07-23T00:36:50;332.45;;;59.72;;
11425;SDS011;5769;47.998;7.788;2022-07-23T00:39:19;333.25;;;60.33;;
11425;SDS011;5769;47.998;7.788;2022-07-23T00:41:47;333.17;;;60.38;;
11425;SDS011;5769;47.998;7.788;2022-07-23T00:44:18;333.42;;;59.80;;
11425;SDS011;5769;47.998;7.788;2022-07-23T00:46:46;332.58;;;60.50;;
11425;SDS011;5769;47.998;7.788;2022-07-23T00:49:15;335.42;;;60.58;;
11425;SDS011;5769;47.998;7.788;2022-07-23T00:51:41;330.15;;;59.60;;
11425;SDS011;5769;47.998;7.788;2022-07-23T00:54:08;333.67;;;60.20;;
11425;SDS011;5769;47.998;7.788;2022-07-23T00:56:36;334.73;;;60.15;;
11425;SDS011;5769;47.998;7.788;2022-07-23T00:59:04;333.60;;;60.42;;
11425;SDS011;5769;47.998;7.788;2022-07-23T01:01:31;334.02;;;60.20;;
11425;SDS011;5769;47.998;7.788;2022-07-23T01:03:58;332.02;;;60.58;;
11425;SDS011;5769;47.998;7.788;2022-07-23T01:06:25;333.17;;;59.75;;
11425;SDS011;5769;47.998;7.788;2022-07-23T01:08:52;332.70;;;60.38;;
11425;SDS011;5769;47.998;7.788;2022-07-23T01:11:20;333.70;;;61.10;;
11425;SDS011;5769;47.998;7.788;2022-07-23T01:13:48;332.33;;;60.30;;
11425;SDS011;5769;47.998;7.788;2022-07-23T01:16:16;332.25;;;60.33;;
11425;SDS011;5769;47.998;7.788;2022-07-23T01:18:43;332.95;;;60.30;;
11425;SDS011;5769;47.998;7.788;2022-07-23T01:21:10;333.45;;;60.97;;
11425;SDS011;5769;47.998;7.788;2022-07-23T01:23:40;333.90;;;59.95;;
11425;SDS011;5769;47.998;7.788;2022-07-23T01:26:06;331.95;;;60.03;;
11425;SDS011;5769;47.998;7.788;2022-07-23T01:28:33;332.58;;;60.42;;
11425;SDS011;5769;47.998;7.788;2022-07-23T01:31:00;333.48;;;60.50;;
11425;SDS011;5769;47.998;7.788;2022-07-23T01:33:26;332.55;;;60.03;;
11425;SDS011;5769;47.998;7.788;2022-07-23T01:35:53;332.73;;;60.95;;
11425;SDS011;5769;47.998;7.788;2022-07-23T01:38:20;333.23;;;59.63;;
11425;SDS011;5769;47.998;7.788;2022-07-23T01:40:48;336.40;;;60.47;;
11425;SDS011;5769;47.998;7.788;2022-07-23T01:43:14;332.13;;;60.05;;
11425;SDS011;5769;47.998;7.788;2022-07-23T01:45:41;331.55;;;60.13;;
11425;SDS011;5769;47.998;7.788;2022-07-23T01:48:09;332.60;;;59.92;;
11425;SDS011;5769;47.998;7.788;2022-07-23T01:50:36;333.00;;;59.60;;
11425;SDS011;5769;47.998;7.788;2022-07-23T01:53:02;331.00;;;59.42;;
11425;SDS011;5769;47.998;7.788;2022-07-23T01:55:29;332.63;;;61.10;;
11425;SDS011;5769;47.998;7.788;2022-07-23T01:57:57;332.77;;;60.00;;
11425;SDS011;5769;47.998;7.788;2022-07-23T02:00:24;332.83;;;61.38;;
11425;SDS011;5769;47.998;7.788;2022-07-23T02:02:50;332.92;;;61.10;;
11425;SDS011;5769;47.998;7.788;2022-07-23T02:05:17;334.33;;;59.85;;
11425;SDS011;5769;47.998;7.788;2022-07-23T02:07:44;334.00;;;59.97;;
11425;SDS011;5769;47.998;7.788;2022-07-23T02:10:10;331.73;;;60.05;;
11425;SDS011;5769;47.998;7.788;2022-07-23T02:12:37;332.33;;;59.78;;
11425;SDS011;5769;47.998;7.788;2022-07-23T02:15:06;333.20;;;60.30;;
11425;SDS011;5769;47.998;7.788;2022-07-23T02:17:33;334.50;;;60.35;;
11425;SDS011;5769;47.998;7.788;2022-07-23T02:20:00;333.60;;;60.67;;
11425;SDS011;5769;47.998;7.788;2022-07-23T02:22:27;333.35;;;60.10;;
11425;SDS011;5769;47.998;7.788;2022-07-23T02:24:54;331.17;;;60.10;;
11425;SDS011;5769;47.998;7.788;2022-07-23T02:27:21;333.15;;;61.33;;
11425;SDS011;5769;47.998;7.788;2022-07-23T02:29:48;333.15;;;61.05;;
11425;SDS011;5769;47.998;7.788;2022-07-23T02:32:16;333.95;;;60.25;;
11425;SDS011;5769;47.998;7.788;2022-07-23T02:34:43;332.65;;;60.65;;
11425;SDS011;5769;47.998;7.788;2022-07-23T02:37:09;334.23;;;61.15;;
11425;SDS011;5769;47.998;7.788;2022-07-23T02:39:36;334.23;;;61.30;;
11425;SDS011;5769;47.998;7.788;2022-07-23T02:42:03;334.02;;;59.97;;
11425;SDS011;5769;47.998;7.788;2022-07-23T02:44:30;333.30;;;60.63;;
11425;SDS011;5769;47.998;7.788;2022-07-23T02:46:56;333.95;;;60.08;;
11425;SDS011;5769;47.998;7.788;2022-07-23T02:49:24;334.08;;;59.75;;
11425;SDS011;5769;47.998;7.788;2022-07-23T02:51:51;333.13;;;59.40;;
11425;SDS011;5769;47.998;7.788;2022-07-23T02:54:18;332.17;;;60.80;;
11425;SDS011;5769;47.998;7.788;2022-07-23T02:56:45;332.60;;;60.97;;
11425;SDS011;5769;47.998;7.788;2022-07-23T02:59:11;332.40;;;60.33;;
11425;SDS011;5769;47.998;7.788;2022-07-23T03:01:38;332.05;;;60.03;;
11425;SDS011;5769;47.998;7.788;2022-07-23T03:04:05;332.27;;;59.85;;
11425;SDS011;5769;47.998;7.788;2022-07-23T03:06:33;332.42;;;59.80;;
11425;SDS011;5769;47.998;7.788;2022-07-23T03:08:59;334.83;;;60.40;;
11425;SDS011;5769;47.998;7.788;2022-07-23T03:11:26;333.08;;;59.95;;
11425;SDS011;5769;47.998;7.788;2022-07-23T03:13:53;334.20;;;60.20;;
11425;SDS011;5769;47.998;7.788;2022-07-23T03:16:19;334.73;;;59.60;;
11425;SDS011;5769;47.998;7.788;2022-07-23T03:18:46;332.85;;;60.70;;
11425;SDS011;5769;47.998;7.788;2022-07-23T03:21:13;333.80;;;60.90;;
11425;SDS011;5769;47.998;7.788;2022-07-23T03:23:41;333.17;;;59.90;;
11425;SDS011;5769;47.998;7.788;2022-07-23T03:26:07;332.08;;;60.33;;
11425;SDS011;5769;47.998;7.788;2022-07-23T03:28:34;332.90;;;59.72;;
11425;SDS011;5769;47.998;7.788;2022-07-23T03:31:01;336.38;;;60.08;;
11425;SDS011;5769;47.998;7.788;2022-07-23T03:33:27;332.92;;;59.38;;
11425;SDS011;5769;47.998;7.788;2022-07-23T03:35:54;332.95;;;60.75;;
11425;SDS011;5769;47.998;7.788;2022-07-23T03:38:21;333.67;;;59.72;;
11425;SDS011;5769;47.998;7.788;2022-07-23T03:40:49;332.42;;;59.55;;
11425;SDS011;5769;47.998;7.788;2022-07-23T03:43:15;333.92;;;60.35;;
11425;SDS011;5769;47.998;7.788;2022-07-23T03:45:42;334.10;;;60.90;;
11425;SDS011;5769;47.998;7.788;2022-07-23T03:48:09;333.02;;;60.33;;
11425;SDS011;5769;47.998;7.788;2022-07-23T03:50:35;332.13;;;61.33;;
11425;SDS011;5769;47.998;7.788;2022-07-23T03:53:03;332.05;;;60.83;;
11425;SDS011;5769;47.998;7.788;2022-07-23T03:55:29;333.63;;;60.90;;
11425;SDS011;5769;47.998;7.788;2022-07-23T03:57:57;331.83;;;60.10;;
11425;SDS011;5769;47.998;7.788;2022-07-23T04:00:24;333.90;;;61.15;;
11425;SDS011;5769;47.998;7.788;2022-07-23T04:02:51;332.70;;;59.63;;
11425;SDS011;5769;47.998;7.788;2022-07-23T04:05:17;331.58;;;58.85;;
11425;SDS011;5769;47.998;7.788;2022-07-23T04:07:44;333.70;;;59.20;;
11425;SDS011;5769;47.998;7.788;2022-07-23T04:10:11;332.52;;;59.42;;
11425;SDS011;5769;47.998;7.788;2022-07-23T04:12:37;332.55;;;60.15;;
11425;SDS011;5769;47.998;7.788;2022-07-23T04:15:06;333.92;;;60.25;;
11425;SDS011;5769;47.998;7.788;2022-07-23T04:17:34;333.83;;;59.83;;
11425;SDS011;5769;47.998;7.788;2022-07-23T04:20:01;333.30;;;59.83;;
11425;SDS011;5769;47.998;7.788;2022-07-23T04:22:28;334.25;;;59.80;;
11425;SDS011;5769;47.998;7.788;2022-07-23T04:24:54;334.80;;;59.97;;
11425;SDS011;5769;47.998;7.788;2022-07-23T04:27:21;332.90;;;59.22;;
11425;SDS011;5769;47.998;7.788;2022-07-23T04:29:48;333.15;;;59.00;;
11425;SDS011;5769;47.998;7.788;2022-07-23T04:32:16;333.60;;;60.15;;
11425;SDS011;5769;47.998;7.788;2022-07-23T04:34:42;333.42;;;59.55;;
11425;SDS011;5769;47.998;7.788;2022-07-23T04:37:09;333.35;;;59.72;;
11425;SDS011;5769;47.998;7.788;2022-07-23T04:39:35;332.52;;;59.83;;
11425;SDS011;5769;47.998;7.788;2022-07-23T04:42:02;332.98;;;59.42;;
11425;SDS011;5769;47.998;7.788;2022-07-23T04:44:29;333.38;;;59.47;;
11425;SDS011;5769;47.998;7.788;2022-07-23T04:46:56;334.48;;;59.35;;
11425;SDS011;5769;47.998;7.788;2022-07-23T04:49:24;333.50;;;59.67;;
11425;SDS011;5769;47.998;7.788;2022-07-23T04:51:51;334.63;;;59.20;;
11425;SDS011;5769;47.998;7.788;2022-07-23T04:54:17;334.65;;;59.63;;
11425;SDS011;5769;47.998;7.788;2022-07-23T04:56:44;333.83;;;59.33;;
11425;SDS011;5769;47.998;7.788;2022-07-23T04:59:11;332.92;;;59.90;;
11425;SDS011;5769;47.998;7.788;2022-07-23T05:01:37;332.38;;;60.97;;
11425;SDS011;5769;47.998;7.788;2022-07-23T05:04:04;335.27;;;61.25;;
11425;SDS011;5769;47.998;7.788;2022-07-23T05:06:32;334.33;;;60.70;;
11425;SDS011;5769;47.998;7.788;2022-07-23T05:08:59;333.00;;;61.53;;
11425;SDS011;5769;47.998;7.788;2022-07-23T05:11:25;335.17;;;61.63;;
11425;SDS011;5769;47.998;7.788;2022-07-23T05:13:52;335.02;;;61.60;;
11425;SDS011;5769;47.998;7.788;2022-07-23T05:16:18;336.25;;;61.72;;
11425;SDS011;5769;47.998;7.788;2022-07-23T05:18:45;333.40;;;61.80;;
11425;SDS011;5769;47.998;7.788;2022-07-23T05:21:12;333.40;;;60.72;;
11425;SDS011;5769;47.998;7.788;2022-07-23T05:23:40;333.67;;;61.75;;
11425;SDS011;5769;47.998;7.788;2022-07-23T05:26:07;333.88;;;60.85;;
11425;SDS011;5769;47.998;7.788;2022-07-23T05:28:33;333.67;;;61.08;;
11425;SDS011;5769;47.998;7.788;2022-07-23T05:31:00;335.27;;;60.83;;
11425;SDS011;5769;47.998;7.788;2022-07-23T05:33:28;334.35;;;60.97;;
11425;SDS011;5769;47.998;7.788;2022-07-23T05:35:59;336.85;;;61.20;;
11425;SDS011;5769;47.998;7.788;2022-07-23T05:38:26;335.50;;;60.60;;
11425;SDS011;5769;47.998;7.788;2022-07-23T05:40:54;334.58;;;60.88;;
11425;SDS011;5769;47.998;7.788;2022-07-23T05:43:21;335.60;;;60.97;;
11425;SDS011;5769;47.998;7.788;2022-07-23T05:45:48;333.45;;;61.15;;
11425;SDS011;5769;47.998;7.788;2022-07-23T05:48:14;333.88;;;60.28;;
11425;SDS011;5769;47.998;7.788;2022-07-23T05:50:41;333.13;;;60.85;;
11425;SDS011;5769;47.998;7.788;2022-07-23T05:53:08;335.30;;;61.38;;
11425;SDS011;5769;47.998;7.788;2022-07-23T05:55:34;333.02;;;60.58;;
11425;SDS011;5769;47.998;7.788;2022-07-23T05:58:02;334.45;;;60.78;;
11425;SDS011;5769;47.998;7.788;2022-07-23T06:00:29;334.08;;;62.10;;
11425;SDS011;5769;47.998;7.788;2022-07-23T06:02:56;335.55;;;61.33;;
11425;SDS011;5769;47.998;7.788;2022-07-23T06:05:23;335.98;;;62.22;;
11425;SDS011;5769;47.998;7.788;2022-07-23T06:07:50;335.08;;;61.55;;
11425;SDS011;5769;47.998;7.788;2022-07-23T06:10:18;333.80;;;61.25;;
11425;SDS011;5769;47.998;7.788;2022-07-23T06:12:44;333.92;;;61.05;;
11425;SDS011;5769;47.998;7.788;2022-07-23T06:15:13;333.95;;;61.15;;
11425;SDS011;5769;47.998;7.788;2022-07-23T06:17:39;334.48;;;60.97;;
11425;SDS011;5769;47.998;7.788;2022-07-23T06:20:06;332.40;;;60.65;;
11425;SDS011;5769;47.998;7.788;2022-07-23T06:22:34;333.77;;;60.75;;
11425;SDS011;5769;47.998;7.788;2022-07-23T06:25:01;333.85;;;60.63;;
11425;SDS011;5769;47.998;7.788;2022-07-23T06:27:28;333.42;;;60.45;;
11425;SDS011;5769;47.998;7.788;2022-07-23T06:29:55;333.95;;;61.17;;
11425;SDS011;5769;47.998;7.788;2022-07-23T06:32:23;333.73;;;60.95;;
11425;SDS011;5769;47.998;7.788;2022-07-23T06:34:50;333.70;;;61.28;;
11425;SDS011;5769;47.998;7.788;2022-07-23T06:37:16;337.92;;;61.13;;
11425;SDS011;5769;47.998;7.788;2022-07-23T06:39:43;333.48;;;60.85;;
11425;SDS011;5769;47.998;7.788;2022-07-23T06:42:09;334.15;;;60.00;;
11425;SDS011;5769;47.998;7.788;2022-07-23T06:44:37;335.75;;;61.47;;
11425;SDS011;5769;47.998;7.788;2022-07-23T06:47:04;333.50;;;60.17;;
11425;SDS011;5769;47.998;7.788;2022-07-23T06:49:32;334.25;;;60.38;;
11425;SDS011;5769;47.998;7.788;2022-07-23T06:51:58;334.10;;;60.75;;
11425;SDS011;5769;47.998;7.788;2022-07-23T06:54:25;334.33;;;60.20;;
11425;SDS011;5769;47.998;7.788;2022-07-23T06:56:52;334.95;;;60.25;;
11425;SDS011;5769;47.998;7.788;2022-07-23T06:59:18;334.65;;;60.40;;
11425;SDS011;5769;47.998;7.788;2022-07-23T07:01:45;337.80;;;60.78;;
11425;SDS011;5769;47.998;7.788;2022-07-23T07:04:12;335.80;;;60.88;;
11425;SDS011;5769;47.998;7.788;2022-07-23T07:06:40;334.73;;;60.28;;
11425;SDS011;5769;47.998;7.788;2022-07-23T07:09:07;333.73;;;60.08;;
11425;SDS011;5769;47.998;7.788;2022-07-23T07:11:33;335.10;;;60.83;;
11425;SDS011;5769;47.998;7.788;2022-07-23T07:14:00;334.45;;;60.75;;
11425;SDS011;5769;47.998;7.788;2022-07-23T07:16:27;333.98;;;61.15;;
11425;SDS011;5769;47.998;7.788;2022-07-23T07:18:53;335.92;;;61.22;;
11425;SDS011;5769;47.998;7.788;2022-07-23T07:21:20;333.45;;;60.67;;
11425;SDS011;5769;47.998;7.788;2022-07-23T07:23:48;337.70;;;60.65;;
11425;SDS011;5769;47.998;7.788;2022-07-23T07:26:15;334.17;;;60.33;;
11425;SDS011;5769;47.998;7.788;2022-07-23T07:28:41;337.08;;;60.78;;
11425;SDS011;5769;47.998;7.788;2022-07-23T07:31:08;333.55;;;60.55;;
11425;SDS011;5769;47.998;7.788;2022-07-23T07:33:35;335.15;;;60.50;;
11425;SDS011;5769;47.998;7.788;2022-07-23T07:36:01;334.95;;;61.13;;
11425;SDS011;5769;47.998;7.788;2022-07-23T07:38:29;335.55;;;61.53;;
11425;SDS011;5769;47.998;7.788;2022-07-23T07:40:57;333.58;;;60.67;;
11425;SDS011;5769;47.998;7.788;2022-07-23T07:43:23;334.35;;;61.08;;
11425;SDS011;5769;47.998;7.788;2022-07-23T07:45:50;335.05;;;61.22;;
11425;SDS011;5769;47.998;7.788;2022-07-23T07:48:17;334.83;;;61.83;;
11425;SDS011;5769;47.998;7.788;2022-07-23T07:50:43;335.63;;;61.58;;
11425;SDS011;5769;47.998;7.788;2022-07-23T07:53:10;337.90;;;62.05;;
11425;SDS011;5769;47.998;7.788;2022-07-23T07:55:37;337.23;;;60.85;;
11425;SDS011;5769;47.998;7.788;2022-07-23T07:58:05;337.63;;;61.38;;
11425;SDS011;5769;47.998;7.788;2022-07-23T08:00:31;337.55;;;60.88;;
11425;SDS011;5769;47.998;7.788;2022-07-23T08:02:58;336.25;;;60.88;;
11425;SDS011;5769;47.998;7.788;2022-07-23T08:05:26;335.73;;;62.13;;
11425;SDS011;5769;47.998;7.788;2022-07-23T08:07:54;334.00;;;61.38;;
11425;SDS011;5769;47.998;7.788;2022-07-23T08:10:22;334.70;;;61.78;;
11425;SDS011;5769;47.998;7.788;2022-07-23T08:12:49;333.60;;;60.92;;
11425;SDS011;5769;47.998;7.788;2022-07-23T08:15:19;336.60;;;61.53;;
11425;SDS011;5769;47.998;7.788;2022-07-23T08:17:47;333.30;;;61.17;;
11425;SDS011;5769;47.998;7.788;2022-07-23T08:20:15;334.38;;;61.17;;
11425;SDS011;5769;47.998;7.788;2022-07-23T08:22:44;335.33;;;61.08;;
11425;SDS011;5769;47.998;7.788;2022-07-23T08:25:12;336.48;;;61.22;;
11425;SDS011;5769;47.998;7.788;2022-07-23T08:27:39;335.08;;;61.20;;
11425;SDS011;5769;47.998;7.788;2022-07-23T08:30:06;335.17;;;62.42;;
11425;SDS011;5769;47.998;7.788;2022-07-23T08:32:35;337.27;;;61.90;;
11425;SDS011;5769;47.998;7.788;2022-07-23T08:35:13;336.35;;;60.90;;
11425;SDS011;5769;47.998;7.788;2022-07-23T08:37:40;335.70;;;62.15;;
11425;SDS011;5769;47.998;7.788;2022-07-23T08:40:07;339.10;;;61.65;;
11425;SDS011;5769;47.998;7.788;2022-07-23T08:42:35;335.73;;;61.75;;
11425;SDS011;5769;47.998;7.788;2022-07-23T08:45:02;334.90;;;61.60;;
11425;SDS011;5769;47.998;7.788;2022-07-23T08:47:29;333.25;;;60.85;;
11425;SDS011;5769;47.998;7.788;2022-07-23T08:49:58;335.83;;;61.15;;
11425;SDS011;5769;47.998;7.788;2022-07-23T08:52:25;334.88;;;61.22;;
11425;SDS011;5769;47.998;7.788;2022-07-23T08:54:52;334.73;;;61.80;;
11425;SDS011;5769;47.998;7.788;2022-07-23T08:57:20;335.38;;;60.05;;
11425;SDS011;5769;47.998;7.788;2022-07-23T08:59:47;334.58;;;61.78;;
11425;SDS011;5769;47.998;7.788;2022-07-23T09:02:13;336.25;;;60.72;;
11425;SDS011;5769;47.998;7.788;2022-07-23T09:04:41;336.58;;;61.42;;
11425;SDS011;5769;47.998;7.788;2022-07-23T09:07:09;336.38;;;62.25;;
11425;SDS011;5769;47.998;7.788;2022-07-23T09:09:36;335.60;;;61.63;;
11425;SDS011;5769;47.998;7.788;2022-07-23T09:12:03;334.70;;;60.67;;
11425;SDS011;5769;47.998;7.788;2022-07-23T09:14:37;334.65;;;61.05;;
11425;SDS011;5769;47.998;7.788;2022-07-23T09:17:08;334.52;;;61.05;;
11425;SDS011;5769;47.998;7.788;2022-07-23T09:19:35;335.77;;;61.92;;
11425;SDS011;5769;47.998;7.788;2022-07-23T09:22:17;336.30;;;60.53;;
11425;SDS011;5769;47.998;7.788;2022-07-23T09:27:44;334.85;;;61.55;;
11425;SDS011;5769;47.998;7.788;2022-07-23T09:30:12;335.92;;;60.92;;
11425;SDS011;5769;47.998;7.788;2022-07-23T09:32:39;333.38;;;60.30;;
11425;SDS011;5769;47.998;7.788;2022-07-23T09:35:06;334.60;;;61.08;;
11425;SDS011;5769;47.998;7.788;2022-07-23T09:37:35;334.85;;;60.92;;
11425;SDS011;5769;47.998;7.788;2022-07-23T09:40:05;335.33;;;59.25;;
11425;SDS011;5769;47.998;7.788;2022-07-23T09:42:34;333.13;;;59.90;;
11425;SDS011;5769;47.998;7.788;2022-07-23T09:45:00;334.58;;;60.20;;
11425;SDS011;5769;47.998;7.788;2022-07-23T09:47:28;334.85;;;59.63;;
11425;SDS011;5769;47.998;7.788;2022-07-23T09:50:00;335.63;;;60.58;;
11425;SDS011;5769;47.998;7.788;2022-07-23T09:52:30;331.92;;;59.63;;
11425;SDS011;5769;47.998;7.788;2022-07-23T09:55:00;335.83;;;61.13;;
11425;SDS011;5769;47.998;7.788;2022-07-23T09:57:28;334.05;;;60.75;;
11425;SDS011;5769;47.998;7.788;2022-07-23T09:59:56;335.02;;;60.67;;
11425;SDS011;5769;47.998;7.788;2022-07-23T10:02:25;332.63;;;60.90;;
11425;SDS011;5769;47.998;7.788;2022-07-23T10:04:54;334.60;;;61.33;;
11425;SDS011;5769;47.998;7.788;2022-07-23T10:07:21;334.75;;;61.13;;
11425;SDS011;5769;47.998;7.788;2022-07-23T10:09:49;336.20;;;60.17;;
11425;SDS011;5769;47.998;7.788;2022-07-23T10:12:19;335.63;;;61.22;;
11425;SDS011;5769;47.998;7.788;2022-07-23T10:15:00;333.92;;;59.95;;
11425;SDS011;5769;47.998;7.788;2022-07-23T10:17:28;333.00;;;59.95;;
11425;SDS011;5769;47.998;7.788;2022-07-23T10:19:54;333.55;;;59.60;;
11425;SDS011;5769;47.998;7.788;2022-07-23T10:22:22;335.50;;;60.45;;
11425;SDS011;5769;47.998;7.788;2022-07-23T10:27:47;334.52;;;60.05;;
11425;SDS011;5769;47.998;7.788;2022-07-23T10:30:26;334.13;;;59.85;;
11425;SDS011;5769;47.998;7.788;2022-07-23T10:33:00;334.05;;;59.88;;
11425;SDS011;5769;47.998;7.788;2022-07-23T10:35:39;334.42;;;59.30;;
11425;SDS011;5769;47.998;7.788;2022-07-23T10:38:13;334.02;;;59.42;;
11425;SDS011;5769;47.998;7.788;2022-07-23T10:40:54;334.38;;;60.17;;
11425;SDS011;5769;47.998;7.788;2022-07-23T10:43:23;333.05;;;59.72;;
11425;SDS011;5769;47.998;7.788;2022-07-23T10:45:50;332.40;;;60.42;;
11425;SDS011;5769;47.998;7.788;2022-07-23T10:48:18;334.67;;;60.45;;
11425;SDS011;5769;47.998;7.788;2022-07-23T10:59:16;335.25;;;59.65;;
11425;SDS011;5769;47.998;7.788;2022-07-23T11:01:43;332.83;;;59.92;;
11425;SDS011;5769;47.998;7.788;2022-07-23T11:04:10;334.77;;;59.40;;
11425;SDS011;5769;47.998;7.788;2022-07-23T11:15:03;335.77;;;60.03;;
11425;SDS011;5769;47.998;7.788;2022-07-23T11:17:32;334.70;;;60.80;;
11425;SDS011;5769;47.998;7.788;2022-07-23T11:20:16;333.15;;;60.55;;
11425;SDS011;5769;47.998;7.788;2022-07-23T11:22:48;334.52;;;59.53;;
11425;SDS011;5769;47.998;7.788;2022-07-23T11:25:29;335.08;;;59.85;;
11425;SDS011;5769;47.998;7.788;2022-07-23T11:28:08;333.88;;;60.30;;
11425;SDS011;5769;47.998;7.788;2022-07-23T11:30:40;337.08;;;60.08;;
11425;SDS011;5769;47.998;7.788;2022-07-23T11:33:18;333.77;;;60.22;;
11425;SDS011;5769;47.998;7.788;2022-07-23T11:35:47;333.55;;;60.47;;
11425;SDS011;5769;47.998;7.788;2022-07-23T11:38:16;333.05;;;60.00;;
11425;SDS011;5769;47.998;7.788;2022-07-23T11:40:44;337.75;;;60.10;;
11425;SDS011;5769;47.998;7.788;2022-07-23T11:43:12;334.23;;;59.88;;
11425;SDS011;5769;47.998;7.788;2022-07-23T11:45:42;331.05;;;59.97;;
11425;SDS011;5769;47.998;7.788;2022-07-23T11:48:15;335.55;;;59.85;;
11425;SDS011;5769;47.998;7.788;2022-07-23T11:50:43;332.00;;;60.25;;
11425;SDS011;5769;47.998;7.788;2022-07-23T11:53:10;333.67;;;60.15;;
11425;SDS011;5769;47.998;7.788;2022-07-23T11:55:37;334.92;;;59.90;;
11425;SDS011;5769;47.998;7.788;2022-07-23T11:58:04;333.73;;;59.90;;
11425;SDS011;5769;47.998;7.788;2022-07-23T12:00:31;335.45;;;61.03;;
11425;SDS011;5769;47.998;7.788;2022-07-23T12:03:00;334.02;;;60.40;;
11425;SDS011;5769;47.998;7.788;2022-07-23T12:05:29;332.27;;;59.90;;
11425;SDS011;5769;47.998;7.788;2022-07-23T12:07:57;332.25;;;61.10;;
11425;SDS011;5769;47.998;7.788;2022-07-23T12:10:25;333.75;;;60.03;;
11425;SDS011;5769;47.998;7.788;2022-07-23T12:12:54;334.17;;;60.03;;
11425;SDS011;5769;47.998;7.788;2022-07-23T12:15:24;332.33;;;59.53;;
11425;SDS011;5769;47.998;7.788;2022-07-23T12:17:54;332.45;;;58.47;;
11425;SDS011;5769;47.998;7.788;2022-07-23T12:20:23;333.23;;;59.67;;
11425;SDS011;5769;47.998;7.788;2022-07-23T12:22:52;332.50;;;60.08;;
11425;SDS011;5769;47.998;7.788;2022-07-23T12:25:22;331.75;;;59.53;;
11425;SDS011;5769;47.998;7.788;2022-07-23T12:27:58;333.13;;;59.85;;
11425;SDS011;5769;47.998;7.788;2022-07-23T12:30:28;333.88;;;59.03;;
11425;SDS011;5769;47.998;7.788;2022-07-23T12:32:57;334.17;;;58.58;;
11425;SDS011;5769;47.998;7.788;2022-07-23T12:35:30;331.95;;;59.83;;
11425;SDS011;5769;47.998;7.788;2022-07-23T12:38:03;333.20;;;58.88;;
11425;SDS011;5769;47.998;7.788;2022-07-23T12:40:31;332.60;;;59.72;;
11425;SDS011;5769;47.998;7.788;2022-07-23T12:43:01;332.55;;;59.05;;
11425;SDS011;5769;47.998;7.788;2022-07-23T12:45:41;332.40;;;59.72;;
11425;SDS011;5769;47.998;7.788;2022-07-23T12:48:15;331.23;;;58.90;;
11425;SDS011;5769;47.998;7.788;2022-07-23T12:50:47;335.92;;;59.88;;
11425;SDS011;5769;47.998;7.788;2022-07-23T12:53:23;333.98;;;59.38;;
11425;SDS011;5769;47.998;7.788;2022-07-23T12:55:56;333.05;;;59.22;;
11425;SDS011;5769;47.998;7.788;2022-07-23T12:58:39;333.60;;;59.03;;
11425;SDS011;5769;47.998;7.788;2022-07-23T13:01:07;332.73;;;59.47;;
11425;SDS011;5769;47.998;7.788;2022-07-23T13:03:35;333.25;;;59.88;;
11425;SDS011;5769;47.998;7.788;2022-07-23T13:06:06;331.80;;;59.45;;
11425;SDS011;5769;47.998;7.788;2022-07-23T13:08:34;333.77;;;59.20;;
11425;SDS011;5769;47.998;7.788;2022-07-23T13:11:05;331.10;;;59.53;;
11425;SDS011;5769;47.998;7.788;2022-07-23T13:13:33;331.55;;;59.25;;
11425;SDS011;5769;47.998;7.788;2022-07-23T13:16:00;333.88;;;59.03;;
11425;SDS011;5769;47.998;7.788;2022-07-23T13:18:28;330.75;;;59.13;;
11425;SDS011;5769;47.998;7.788;2022-07-23T13:20:55;334.08;;;58.75;;
11425;SDS011;5769;47.998;7.788;2022-07-23T13:23:23;332.30;;;59.55;;
11425;SDS011;5769;47.998;7.788;2022-07-23T13:25:50;333.05;;;59.95;;
11425;SDS011;5769;47.998;7.788;2022-07-23T13:28:17;333.90;;;59.45;;
11425;SDS011;5769;47.998;7.788;2022-07-23T13:30:45;332.35;;;59.13;;
11425;SDS011;5769;47.998;7.788;2022-07-23T13:33:14;333.20;;;59.90;;
11425;SDS011;5769;47.998;7.788;2022-07-23T13:35:41;334.05;;;59.28;;
11425;SDS011;5769;47.998;7.788;2022-07-23T13:38:08;333.67;;;59.47;;
11425;SDS011;5769;47.998;7.788;2022-07-23T13:40:37;333.33;;;59.90;;
11425;SDS011;5769;47.998;7.788;2022-07-23T13:43:07;330.58;;;59.42;;
11425;SDS011;5769;47.998;7.788;2022-07-23T13:45:34;330.05;;;59.25;;
11425;SDS011;5769;47.998;7.788;2022-07-23T13:48:02;332.70;;;59.65;;
11425;SDS011;5769;47.998;7.788;2022-07-23T13:50:30;332.58;;;59.97;;
11425;SDS011;5769;47.998;7.788;2022-07-23T13:52:57;331.55;;;59.28;;
11425;SDS011;5769;47.998;7.788;2022-07-23T13:55:26;333.15;;;60.08;;
11425;SDS011;5769;47.998;7.788;2022-07-23T13:57:54;332.77;;;60.13;;
11425;SDS011;5769;47.998;7.788;2022-07-23T14:00:20;331.15;;;60.10;;
11425;SDS011;5769;47.998;7.788;2022-07-23T14:02:47;335.30;;;60.88;;
11425;SDS011;5769;47.998;7.788;2022-07-23T14:05:14;332.42;;;59.65;;
11425;SDS011;5769;47.998;7.788;2022-07-23T14:07:41;333.70;;;59.90;;
11425;SDS011;5769;47.998;7.788;2022-07-23T14:10:09;335.33;;;60.25;;
11425;SDS011;5769;47.998;7.788;2022-07-23T14:12:37;331.88;;;59.65;;
11425;SDS011;5769;47.998;7.788;2022-07-23T14:15:05;335.67;;;60.28;;
11425;SDS011;5769;47.998;7.788;2022-07-23T14:17:33;329.95;;;59.95;;
11425;SDS011;5769;47.998;7.788;2022-07-23T14:20:02;334.45;;;59.63;;
11425;SDS011;5769;47.998;7.788;2022-07-23T14:22:29;332.83;;;59.30;;
11425;SDS011;5769;47.998;7.788;2022-07-23T14:24:56;334.48;;;59.30;;
11425;SDS011;5769;47.998;7.788;2022-07-23T14:27:23;331.35;;;59.33;;
11425;SDS011;5769;47.998;7.788;2022-07-23T14:29:50;331.92;;;60.35;;
11425;SDS011;5769;47.998;7.788;2022-07-23T14:32:19;334.25;;;60.15;;
11425;SDS011;5769;47.998;7.788;2022-07-23T14:34:45;334.92;;;60.05;;
11425;SDS011;5769;47.998;7.788;2022-07-23T14:37:12;333.80;;;59.83;;
11425;SDS011;5769;47.998;7.788;2022-07-23T14:39:40;331.98;;;60.25;;
11425;SDS011;5769;47.998;7.788;2022-07-23T14:42:07;331.23;;;59.60;;
11425;SDS011;5769;47.998;7.788;2022-07-23T14:44:34;332.38;;;60.38;;
11425;SDS011;5769;47.998;7.788;2022-07-23T14:47:02;333.20;;;60.38;;